Time;durP1;ratioP1;P1;durP2;ratioP2;P2;SDS_P1;SDS_P2;PMS_P1;PMS_P2;Temp;Humidity;BMP_temperature;BMP_pressure;BME280_temperature;BME280_humidity;BME280_pressure;Samples;Min_cycle;Max_cycle;Signal;HPM_P1;HPM_P2
2023/05/21 00:01:41;;;;;;;4.93;3.60;;;;;;;13.47;78.73;101649.41;4882976;29;20458;-89
2023/05/21 00:04:12;;;;;;;4.43;3.42;;;;;;;13.48;78.99;101659.28;4882200;29;20119;-89
2023/05/21 00:06:50;;;;;;;4.67;3.47;;;;;;;13.43;79.48;101654.44;4882218;29;20500;-90
2023/05/21 00:09:21;;;;;;;6.32;3.30;;;;;;;13.40;79.72;101652.16;4867780;29;20032;-90
2023/05/21 00:11:49;;;;;;;6.30;3.60;;;;;;;13.36;79.85;101644.63;4899032;29;20096;-90
2023/05/21 00:14:15;;;;;;;5.38;4.10;;;;;;;13.33;80.50;101643.13;4882198;29;20488;-90
2023/05/21 00:16:41;;;;;;;5.60;3.67;;;;;;;13.29;80.60;101644.63;4881742;29;20028;-89
2023/05/21 00:19:09;;;;;;;5.10;3.67;;;;;;;13.26;81.29;101639.59;4898599;29;20182;-90
2023/05/21 00:21:35;;;;;;;5.68;3.95;;;;;;;13.25;81.37;101638.75;4881569;29;20054;-90
2023/05/21 00:24:10;;;;;;;6.17;3.57;;;;;;;13.20;81.33;101635.84;4881246;29;20151;-90
2023/05/21 00:26:40;;;;;;;8.52;4.00;;;;;;;13.17;81.67;101636.25;4882512;29;20032;-90
2023/05/21 00:29:36;;;;;;;7.57;4.10;;;;;;;13.14;80.51;101642.16;4866806;29;20040;-90
2023/05/21 00:32:02;;;;;;;12.33;5.60;;;;;;;13.09;82.33;101637.31;4881982;29;20032;-90
2023/05/21 00:34:37;;;;;;;14.55;8.20;;;;;;;13.10;82.65;101640.88;4881268;29;20124;-90
2023/05/21 00:37:08;;;;;;;13.73;9.25;;;;;;;13.05;82.54;101632.50;4867202;29;20068;-90
2023/05/21 00:39:46;;;;;;;12.45;9.20;;;;;;;13.04;82.39;101631.69;4881620;29;20036;-90
2023/05/21 00:42:13;;;;;;;12.40;8.43;;;;;;;13.01;83.38;101625.78;4882067;29;20127;-90
2023/05/21 00:44:40;;;;;;;10.55;7.40;;;;;;;12.96;83.78;101629.16;4881325;29;20036;-90
2023/05/21 00:47:11;;;;;;;9.63;6.40;;;;;;;12.95;83.96;101631.06;4881983;29;20393;-90
2023/05/21 00:49:41;;;;;;;10.98;5.60;;;;;;;12.91;84.53;101627.06;4881624;29;20037;-90
2023/05/21 00:52:25;;;;;;;7.55;4.90;;;;;;;12.89;84.08;101626.47;4881676;29;20037;-90
2023/05/21 00:55:05;;;;;;;6.13;4.60;;;;;;;12.86;84.52;101626.91;4881915;29;20051;-89
2023/05/21 00:57:41;;;;;;;8.55;4.30;;;;;;;12.81;84.55;101622.09;4881619;29;20072;-90
2023/05/21 01:00:07;;;;;;;4.95;4.18;;;;;;;12.79;85.50;101623.34;4881619;29;20040;-90
2023/05/21 01:02:37;;;;;;;5.82;3.97;;;;;;;12.78;85.66;101625.22;4880988;29;20163;-90
2023/05/21 01:05:04;;;;;;;5.95;3.92;;;;;;;12.78;86.13;101621.66;4881598;29;20028;-89
2023/05/21 01:07:33;;;;;;;7.53;4.00;;;;;;;12.75;86.09;101619.34;4881811;29;20043;-90
2023/05/21 01:10:05;;;;;;;5.15;3.72;;;;;;;12.73;86.36;101624.19;4866078;29;20048;-89
2023/05/21 01:12:37;;;;;;;10.05;3.70;;;;;;;12.71;86.46;101620.81;4881770;29;20048;-90
2023/05/21 01:15:06;;;;;;;6.60;3.78;;;;;;;12.70;86.84;101624.63;4867229;29;20040;-91
2023/05/21 01:17:47;;;;;;;8.27;3.75;;;;;;;12.70;86.12;101625.44;4881595;29;20115;-90
2023/05/21 01:20:29;;;;;;;6.30;4.10;;;;;;;12.68;87.26;101621.25;4864808;29;20048;-89
2023/05/21 01:23:01;;;;;;;8.88;3.80;;;;;;;12.61;87.65;101624.81;4881492;29;20063;-90
2023/05/21 01:25:52;;;;;;;5.05;3.70;;;;;;;12.61;86.58;101619.38;4880828;29;20052;-90
2023/05/21 01:28:20;;;;;;;7.65;4.10;;;;;;;12.59;87.65;101626.91;4881171;29;20036;-90
2023/05/21 01:30:50;;;;;;;6.68;4.03;;;;;;;12.56;88.81;101621.91;4881431;29;20089;-89
2023/05/21 01:33:42;;;;;;;5.97;4.07;;;;;;;12.52;88.73;101617.91;4866610;29;20136;-89
2023/05/21 01:36:39;;;;;;;6.65;4.45;;;;;;;12.49;87.23;101621.06;4865101;29;20527;-90
2023/05/21 01:42:25;;;;;;;6.50;4.20;;;;;;;12.41;88.85;101610.38;4878312;29;20402;-87
2023/05/21 01:44:56;;;;;;;5.13;3.75;;;;;;;12.36;89.28;101611.00;4897803;29;20060;-86
2023/05/21 01:47:23;;;;;;;6.70;4.23;;;;;;;12.34;89.99;101604.06;4884535;29;20115;-86
2023/05/21 01:49:52;;;;;;;5.95;4.00;;;;;;;12.38;90.06;101614.34;4884326;29;20178;-86
2023/05/21 01:52:18;;;;;;;6.95;4.05;;;;;;;12.35;90.39;101616.66;4901132;29;20029;-86
2023/05/21 01:54:43;;;;;;;8.52;4.53;;;;;;;12.34;90.35;101607.66;4884800;29;20040;-86
2023/05/21 01:57:12;;;;;;;4.83;3.77;;;;;;;12.30;90.68;101606.41;4884130;29;20370;-86
2023/05/21 01:59:40;;;;;;;5.22;3.75;;;;;;;12.35;90.94;101609.31;4884375;29;20046;-86
2023/05/21 02:05:27;;;;;;;5.90;3.67;;;;;;;12.53;89.93;101611.41;4900941;29;20044;-86
2023/05/21 02:07:53;;;;;;;5.03;4.53;;;;;;;12.51;90.13;101597.19;4869152;29;20032;-86
2023/05/21 02:10:24;;;;;;;7.70;4.50;;;;;;;12.62;89.69;101595.69;4901563;29;20172;-86
2023/05/21 02:12:58;;;;;;;5.67;4.03;;;;;;;12.66;89.45;101594.22;4884963;29;20037;-86
2023/05/21 02:15:26;;;;;;;5.20;4.00;;;;;;;12.64;89.23;101596.34;4868868;29;20041;-86
2023/05/21 02:17:51;;;;;;;6.50;4.13;;;;;;;12.70;89.35;101600.94;4900891;29;20037;-86
2023/05/21 02:20:21;;;;;;;5.87;3.93;;;;;;;12.79;89.10;101601.56;4901258;29;20029;-86
2023/05/21 02:22:50;;;;;;;7.00;3.97;;;;;;;12.87;88.79;101604.03;4884228;29;20036;-86
2023/05/21 02:28:39;;;;;;;8.40;3.90;;;;;;;12.88;88.39;101592.09;4901089;29;20492;-86
2023/05/21 02:31:07;;;;;;;5.05;3.75;;;;;;;12.87;88.71;101597.75;4900386;29;20040;-86
2023/05/21 02:33:33;;;;;;;5.43;4.10;;;;;;;12.92;88.24;101600.69;4900371;29;20064;-86
2023/05/21 02:36:11;;;;;;;7.70;4.07;;;;;;;12.96;88.78;101605.50;4883899;29;20044;-86
2023/05/21 02:38:42;;;;;;;6.60;3.85;;;;;;;12.92;88.74;101592.53;4885739;29;20441;-86
2023/05/21 02:41:08;;;;;;;7.77;3.93;;;;;;;12.98;88.36;101595.22;4883612;29;20470;-86
2023/05/21 02:43:35;;;;;;;6.40;3.95;;;;;;;13.04;88.40;101599.00;4883532;29;20397;-86
2023/05/21 02:46:05;;;;;;;6.30;3.65;;;;;;;13.08;87.91;101594.78;4868694;29;20045;-86
2023/05/21 02:48:33;;;;;;;7.30;4.13;;;;;;;13.09;87.51;101592.88;4883786;29;20028;-86
2023/05/21 02:50:58;;;;;;;7.05;3.85;;;;;;;13.10;87.66;101587.22;4900192;29;20055;-86
2023/05/21 02:53:24;;;;;;;7.67;4.40;;;;;;;13.12;87.66;101596.03;4883497;29;20036;-86
2023/05/21 02:55:50;;;;;;;5.72;4.00;;;;;;;13.07;87.65;101579.50;4900868;29;20032;-86
2023/05/21 02:58:15;;;;;;;4.90;4.00;;;;;;;13.14;87.82;101599.38;4883988;29;20036;-86
2023/05/21 03:00:41;;;;;;;5.73;4.20;;;;;;;13.07;88.21;101582.22;4883459;29;20081;-86
2023/05/21 03:03:12;;;;;;;9.63;4.40;;;;;;;13.06;88.25;101577.81;4867856;29;20048;-86
2023/05/21 03:05:37;;;;;;;6.53;4.00;;;;;;;13.07;88.44;101574.03;4883735;29;20041;-86
2023/05/21 03:08:03;;;;;;;6.70;4.32;;;;;;;13.11;88.18;101582.59;4883844;29;20059;-86
2023/05/21 03:10:29;;;;;;;6.77;4.03;;;;;;;13.10;88.63;101587.22;4883215;29;20051;-86
2023/05/21 03:12:54;;;;;;;6.73;4.30;;;;;;;13.05;89.07;101578.03;4868283;29;20033;-86
2023/05/21 03:15:22;;;;;;;5.13;4.40;;;;;;;12.98;89.67;101567.16;4882838;29;20029;-86
2023/05/21 03:17:52;;;;;;;6.70;4.53;;;;;;;12.95;90.14;101564.88;4883334;29;20033;-86
2023/05/21 03:20:18;;;;;;;5.53;4.67;;;;;;;12.90;89.97;101561.94;4868198;29;20444;-86
2023/05/21 03:22:46;;;;;;;4.85;4.13;;;;;;;12.92;90.14;101562.56;4883190;29;20136;-86
2023/05/21 03:25:12;;;;;;;7.10;4.10;;;;;;;12.88;90.27;101567.59;4882206;29;20052;-87
2023/05/21 03:27:38;;;;;;;6.17;4.53;;;;;;;12.79;90.66;101557.97;4883085;29;20100;-86
2023/05/21 03:30:07;;;;;;;6.93;4.35;;;;;;;12.84;91.06;101566.34;4882970;29;20107;-86
2023/05/21 03:32:36;;;;;;;7.03;4.37;;;;;;;12.78;91.33;101559.03;4883580;29;20132;-86
2023/05/21 03:35:05;;;;;;;6.40;4.00;;;;;;;12.73;91.69;101565.09;4883320;29;20037;-86
2023/05/21 03:37:30;;;;;;;7.90;4.15;;;;;;;12.75;92.08;101567.63;4882902;29;20045;-86
2023/05/21 03:39:56;;;;;;;6.43;4.10;;;;;;;12.70;91.91;101568.25;4882475;29;20088;-86
2023/05/21 03:42:24;;;;;;;5.80;4.60;;;;;;;12.73;92.58;101575.19;4899717;29;20108;-86
2023/05/21 03:44:49;;;;;;;6.65;4.15;;;;;;;12.78;91.93;101568.06;4883241;29;20418;-88
2023/05/21 03:47:18;;;;;;;6.47;4.27;;;;;;;12.81;92.54;101574.94;4882824;29;20128;-86
2023/05/21 03:49:46;;;;;;;6.65;4.28;;;;;;;12.84;92.53;101562.78;4882239;29;20040;-86
2023/05/21 03:52:12;;;;;;;5.60;4.40;;;;;;;12.88;92.51;101570.31;4882264;29;20033;-86
2023/05/21 03:54:37;;;;;;;5.90;3.83;;;;;;;12.95;91.97;101576.59;4882122;29;20457;-86
2023/05/21 03:57:03;;;;;;;5.37;4.20;;;;;;;12.99;92.16;101564.22;4866936;29;20092;-86
2023/05/21 03:59:33;;;;;;;7.00;4.60;;;;;;;13.04;92.47;101568.19;4898893;29;20085;-86
2023/05/21 04:02:00;;;;;;;7.13;4.00;;;;;;;12.99;92.05;101557.91;4898928;29;20044;-86
2023/05/21 04:04:28;;;;;;;7.55;4.47;;;;;;;13.02;92.41;101562.97;4881891;29;20028;-86
2023/05/21 04:07:30;;;;;;;8.30;3.85;;;;;;;13.11;91.43;101572.56;4899082;29;20035;-86
2023/05/21 04:14:14;;;;;;;5.00;4.13;;;;;;;13.08;91.30;101575.72;4898736;29;20554;-88
2023/05/21 04:16:42;;;;;;;6.13;4.45;;;;;;;12.98;92.51;101562.53;4881866;29;20036;-86
2023/05/21 04:19:08;;;;;;;6.50;4.13;;;;;;;13.07;93.04;101575.94;4899124;29;20155;-86
2023/05/21 04:21:39;;;;;;;11.97;4.30;;;;;;;13.02;92.57;101568.41;4898876;29;20064;-86
2023/05/21 04:24:07;;;;;;;7.45;4.30;;;;;;;13.01;92.46;101563.16;4899000;29;20056;-86
2023/05/21 04:26:34;;;;;;;5.53;4.40;;;;;;;13.00;93.12;101567.78;4881975;29;20096;-86
2023/05/21 04:29:10;;;;;;;6.60;4.90;;;;;;;12.98;92.89;101567.16;4882721;29;20442;-86
2023/05/21 04:31:35;;;;;;;6.37;4.80;;;;;;;13.01;93.10;101565.88;4867540;29;20470;-86
2023/05/21 04:34:06;;;;;;;5.82;4.28;;;;;;;13.04;93.01;101568.19;4898729;29;20035;-86
2023/05/21 04:36:34;;;;;;;7.05;5.40;;;;;;;13.04;92.86;101569.03;4882794;29;20037;-86
2023/05/21 04:39:06;;;;;;;7.77;4.93;;;;;;;13.04;93.22;101569.03;4866311;29;20131;-86
2023/05/21 04:41:31;;;;;;;6.32;5.13;;;;;;;13.06;93.07;101569.63;4881710;29;20041;-86
2023/05/21 04:43:57;;;;;;;7.83;5.20;;;;;;;13.18;92.94;101577.16;4882212;29;20024;-86
2023/05/21 04:46:27;;;;;;;7.57;5.27;;;;;;;13.12;93.34;101574.25;4881859;29;20272;-86
2023/05/21 04:48:56;;;;;;;8.60;5.63;;;;;;;13.18;92.75;101586.16;4866002;29;20131;-86
2023/05/21 04:51:25;;;;;;;6.78;5.00;;;;;;;13.14;92.75;101574.84;4882033;29;20481;-86
2023/05/21 04:53:50;;;;;;;6.78;5.20;;;;;;;13.19;93.09;101576.94;4881913;29;20123;-86
2023/05/21 04:56:17;;;;;;;7.33;5.33;;;;;;;13.26;92.79;101577.75;4881472;29;20079;-86
2023/05/21 04:58:46;;;;;;;6.05;5.30;;;;;;;13.27;92.61;101592.19;4898468;29;20044;-86
2023/05/21 05:01:12;;;;;;;8.20;5.33;;;;;;;13.25;92.57;101570.63;4898134;29;20497;-86
2023/05/21 05:03:37;;;;;;;8.50;5.35;;;;;;;13.36;92.48;101580.06;4881561;29;20049;-88
2023/05/21 05:06:07;;;;;;;6.83;5.17;;;;;;;13.44;92.42;101584.41;4881221;29;20124;-89
2023/05/21 05:08:32;;;;;;;8.88;5.05;;;;;;;13.42;nan;101575.59;4898291;29;20036;-88
2023/05/21 05:10:58;;;;;;;5.88;5.00;;;;;;;13.50;91.79;101578.91;4881177;29;20033;-86
2023/05/21 05:13:31;;;;;;;9.23;5.20;;;;;;;13.56;91.34;101576.41;4881745;29;20088;-85
2023/05/21 05:15:57;;;;;;;8.52;5.30;;;;;;;13.66;91.90;101565.84;4881866;29;20040;-85
2023/05/21 05:18:22;;;;;;;8.97;4.77;;;;;;;13.77;90.85;101569.78;4898329;29;20057;-85
2023/05/21 05:20:48;;;;;;;8.20;5.38;;;;;;;13.89;90.57;101568.00;4882793;29;20076;-84
2023/05/21 05:23:13;;;;;;;9.03;5.23;;;;;;;13.94;90.62;101565.47;4886255;29;20032;-85
2023/05/21 05:25:41;;;;;;;7.50;5.90;;;;;;;14.04;89.77;101567.72;4884945;29;20139;-84
2023/05/21 05:28:11;;;;;;;7.83;5.20;;;;;;;14.15;89.63;101580.63;4885274;29;20312;-85
2023/05/21 05:30:42;;;;;;;10.02;5.18;;;;;;;14.18;88.87;101561.06;4870585;29;20063;-86
2023/05/21 05:33:10;;;;;;;8.35;5.15;;;;;;;14.27;88.46;101564.38;4885223;29;20549;-85
2023/05/21 05:35:44;;;;;;;7.55;5.45;;;;;;;14.35;88.88;101564.09;4885076;29;20080;-86
2023/05/21 05:38:15;;;;;;;7.38;4.82;;;;;;;14.46;87.77;101572.63;4884634;29;20036;-85
2023/05/21 05:40:41;;;;;;;10.17;5.57;;;;;;;14.55;86.86;101572.09;4884970;29;20147;-86
2023/05/21 05:43:07;;;;;;;12.38;5.40;;;;;;;14.71;86.34;101578.09;4869316;29;20056;-86
2023/05/21 05:45:37;;;;;;;7.00;5.10;;;;;;;14.77;86.05;101563.53;4884331;29;20025;-86
2023/05/21 05:48:03;;;;;;;7.50;5.35;;;;;;;14.88;85.82;101579.19;4885177;29;20367;-85
2023/05/21 05:50:31;;;;;;;7.27;5.63;;;;;;;14.96;85.68;101578.03;4901132;29;20231;-85
2023/05/21 05:52:56;;;;;;;9.38;5.90;;;;;;;15.08;84.62;101583.59;4901354;29;20040;-86
2023/05/21 05:55:25;;;;;;;6.53;5.20;;;;;;;15.09;83.95;101569.69;4884076;29;20025;-86
2023/05/21 05:57:53;;;;;;;7.43;5.35;;;;;;;15.16;83.58;101566.03;4869445;29;20377;-86
2023/05/21 06:00:19;;;;;;;8.57;5.82;;;;;;;15.28;83.22;101572.44;4869134;29;20040;-86
2023/05/21 06:02:47;;;;;;;6.47;5.27;;;;;;;15.31;82.88;101574.69;4884022;29;20036;-86
2023/05/21 06:05:15;;;;;;;8.65;5.28;;;;;;;15.44;82.33;101570.94;4901611;29;20029;-85
2023/05/21 06:07:46;;;;;;;8.15;5.28;;;;;;;15.58;81.35;101572.44;4884516;29;20601;-86
2023/05/21 06:10:12;;;;;;;5.78;5.18;;;;;;;15.70;81.26;101577.97;4884185;29;20077;-86
2023/05/21 06:12:38;;;;;;;7.07;5.10;;;;;;;15.84;80.14;101584.13;4883580;29;20129;-86
2023/05/21 06:15:05;;;;;;;5.93;5.10;;;;;;;15.94;79.75;101581.66;4884759;29;20044;-86
2023/05/21 06:17:31;;;;;;;7.07;5.20;;;;;;;16.04;79.72;101569.31;4900699;29;20039;-86
2023/05/21 06:19:56;;;;;;;9.65;5.60;;;;;;;16.23;79.12;101581.00;4884117;29;20048;-83
2023/05/21 06:22:22;;;;;;;6.80;4.70;;;;;;;16.35;78.46;101578.28;4884288;29;20474;-86
2023/05/21 06:24:50;;;;;;;8.63;5.33;;;;;;;16.41;78.16;101578.16;4864516;29;20097;-85
2023/05/21 06:27:17;;;;;;;7.30;5.50;;;;;;;16.50;77.26;101578.66;4883803;29;20040;-89
2023/05/21 06:29:42;;;;;;;5.50;5.00;;;;;;;16.62;76.79;101582.25;4900512;29;20044;-86
2023/05/21 06:32:10;;;;;;;8.33;5.50;;;;;;;16.70;77.13;101578.31;4882981;29;20643;-86
2023/05/21 06:34:38;;;;;;;8.38;5.90;;;;;;;16.87;76.59;101585.78;4884250;29;20028;-85
2023/05/21 06:37:11;;;;;;;8.32;5.38;;;;;;;16.97;76.44;101570.44;4884120;29;20413;-85
2023/05/21 06:39:40;;;;;;;7.63;5.68;;;;;;;17.14;75.21;101569.69;4868228;29;20028;-85
2023/05/21 06:42:05;;;;;;;7.70;5.60;;;;;;;17.18;74.66;101568.13;4900586;29;20040;-86
2023/05/21 06:44:33;;;;;;;6.43;5.27;;;;;;;17.22;73.79;101563.84;4867823;29;20029;-85
2023/05/21 06:47:01;;;;;;;7.55;5.43;;;;;;;17.35;74.11;101580.00;4868534;29;20213;-86
2023/05/21 06:49:34;;;;;;;11.07;5.93;;;;;;;17.48;74.12;101576.16;4883224;29;20036;-86
2023/05/21 06:52:00;;;;;;;6.93;5.43;;;;;;;17.56;72.70;101568.63;4884209;29;20033;-84
2023/05/21 06:54:28;;;;;;;5.85;5.22;;;;;;;17.74;73.00;101579.38;4883030;29;20036;-86
2023/05/21 06:56:53;;;;;;;7.57;5.82;;;;;;;17.73;72.50;101564.00;4883332;29;20467;-86
2023/05/21 06:59:21;;;;;;;9.67;5.90;;;;;;;17.89;72.10;101567.84;4884101;29;20044;-86
2023/05/21 07:01:49;;;;;;;9.00;5.78;;;;;;;18.04;71.32;101564.56;4882962;29;20382;-86
2023/05/21 07:04:24;;;;;;;6.65;5.72;;;;;;;18.05;69.94;101553.38;4883101;29;20540;-86
2023/05/21 07:06:53;;;;;;;10.63;6.15;;;;;;;18.09;70.34;101556.44;4869150;29;20047;-86
2023/05/21 07:09:18;;;;;;;9.03;5.80;;;;;;;18.28;69.88;101557.03;4868120;29;20355;-85
2023/05/21 07:11:44;;;;;;;7.22;5.85;;;;;;;18.33;69.46;101543.34;4900495;29;20041;-86
2023/05/21 07:14:10;;;;;;;9.00;6.00;;;;;;;18.34;68.70;101550.53;4899658;29;20039;-86
2023/05/21 07:16:35;;;;;;;10.13;6.07;;;;;;;18.38;68.82;101548.09;4883392;29;20053;-86
2023/05/21 07:19:03;;;;;;;6.47;5.70;;;;;;;18.47;68.68;101543.88;4883022;29;20032;-86
2023/05/21 07:21:32;;;;;;;8.90;6.10;;;;;;;18.61;67.77;101549.00;4882667;29;20111;-86
2023/05/21 07:24:00;;;;;;;10.35;6.25;;;;;;;18.69;67.52;101546.66;4883262;29;20052;-86
2023/05/21 07:26:28;;;;;;;9.23;6.57;;;;;;;18.74;68.57;101541.22;4883616;29;20127;-86
2023/05/21 07:28:53;;;;;;;9.65;5.90;;;;;;;18.85;67.11;101558.72;4882480;29;20040;-87
2023/05/21 07:31:23;;;;;;;9.18;6.40;;;;;;;18.87;67.55;101561.22;4882423;29;20043;-86
2023/05/21 07:33:56;;;;;;;9.73;6.47;;;;;;;18.83;66.99;101549.03;4883222;29;20096;-86
2023/05/21 07:36:22;;;;;;;7.53;6.05;;;;;;;18.86;67.07;101548.56;4883121;29;20028;-86
2023/05/21 07:38:50;;;;;;;8.67;6.90;;;;;;;18.88;67.16;101544.47;4900019;29;20044;-86
2023/05/21 07:41:20;;;;;;;9.25;6.55;;;;;;;18.89;66.57;101542.56;4882325;29;20037;-86
2023/05/21 07:43:54;;;;;;;9.82;7.15;;;;;;;18.96;66.02;101545.94;4883005;29;20405;-86
2023/05/21 07:46:19;;;;;;;9.45;6.85;;;;;;;18.91;66.96;101535.72;4882682;29;20401;-86
2023/05/21 07:48:45;;;;;;;8.90;6.00;;;;;;;19.00;66.47;101543.50;4899873;29;20029;-85
2023/05/21 07:51:28;;;;;;;9.45;6.72;;;;;;;19.11;66.37;101537.06;4882411;29;20033;-86
2023/05/21 07:53:56;;;;;;;8.27;6.37;;;;;;;19.19;66.79;101541.28;4882152;29;20172;-86
2023/05/21 07:56:25;;;;;;;8.43;6.40;;;;;;;19.26;65.76;101539.16;4882080;29;20401;-86
2023/05/21 07:58:53;;;;;;;8.00;6.30;;;;;;;19.34;66.18;101541.47;4882345;29;20037;-86
2023/05/21 08:01:21;;;;;;;12.93;6.70;;;;;;;19.33;65.78;101544.47;4899091;29;20036;-86
2023/05/21 08:03:46;;;;;;;11.13;6.63;;;;;;;19.38;65.95;101552.78;4882403;29;20473;-86
2023/05/21 08:06:17;;;;;;;8.37;6.77;;;;;;;19.34;65.51;101541.47;4898809;29;20029;-86
2023/05/21 08:08:43;;;;;;;11.88;7.20;;;;;;;19.33;65.71;101530.72;4899800;29;20076;-86
2023/05/21 08:11:08;;;;;;;8.63;6.60;;;;;;;19.16;66.26;101542.63;4881929;29;20040;-86
2023/05/21 08:13:34;;;;;;;11.43;7.10;;;;;;;19.17;67.52;101540.72;4898675;29;20144;-86
2023/05/21 08:15:59;;;;;;;9.95;7.22;;;;;;;19.06;67.13;101537.84;4881819;29;20397;-86
2023/05/21 08:18:27;;;;;;;9.57;7.40;;;;;;;19.04;67.90;101542.75;4881581;29;20036;-86
2023/05/21 08:20:53;;;;;;;11.32;6.97;;;;;;;19.17;68.30;101541.53;4882625;29;20088;-86
2023/05/21 08:23:25;;;;;;;9.10;7.03;;;;;;;19.27;67.15;101535.34;4881644;29;20044;-86
2023/05/21 08:25:58;;;;;;;8.70;6.60;;;;;;;19.36;67.32;101533.78;4866877;29;20805;-86
2023/05/21 08:28:27;;;;;;;10.98;7.13;;;;;;;19.38;67.87;101530.78;4866569;29;20131;-86
2023/05/21 08:30:58;;;;;;;11.70;7.72;;;;;;;19.36;67.11;101531.03;4898437;29;20041;-86
2023/05/21 08:33:24;;;;;;;8.88;7.05;;;;;;;19.34;66.53;101521.38;4881895;29;20040;-86
2023/05/21 08:35:49;;;;;;;10.90;7.50;;;;;;;19.51;67.64;101527.59;4881519;29;20116;-86
2023/05/21 08:38:18;;;;;;;11.10;7.80;;;;;;;19.37;67.14;101518.09;4882040;29;20029;-86
2023/05/21 08:40:49;;;;;;;9.73;7.40;;;;;;;19.37;68.20;101518.94;4881761;29;20124;-86
2023/05/21 08:43:17;;;;;;;14.90;7.45;;;;;;;19.40;67.76;101515.66;4882621;29;20033;-86
2023/05/21 08:46:09;;;;;;;10.50;7.97;;;;;;;19.51;67.71;101524.84;4881824;29;20477;-87
2023/05/21 08:48:39;;;;;;;9.57;8.05;;;;;;;19.56;66.50;101519.41;4879174;29;20045;-86
2023/05/21 08:51:09;;;;;;;11.07;8.00;;;;;;;19.63;66.16;101519.19;4882599;29;20043;-86
2023/05/21 08:53:38;;;;;;;10.30;7.93;;;;;;;19.78;65.89;101513.03;4882231;29;20228;-86
2023/05/21 08:56:14;;;;;;;10.40;8.02;;;;;;;19.87;65.45;101518.91;4882785;29;20032;-87
2023/05/21 08:58:46;;;;;;;10.55;7.88;;;;;;;19.95;65.89;101529.44;4885525;29;20035;-86
2023/05/21 09:01:12;;;;;;;11.18;8.63;;;;;;;20.00;64.81;101526.72;4885727;29;20035;-86
2023/05/21 09:03:51;;;;;;;10.57;7.90;;;;;;;19.96;64.42;101515.41;4902153;29;20028;-86
2023/05/21 09:06:20;;;;;;;13.65;7.80;;;;;;;20.08;64.68;101515.25;4885356;29;20037;-86
2023/05/21 09:08:55;;;;;;;12.73;8.20;;;;;;;20.19;64.30;101516.13;4877731;29;20044;-86
2023/05/21 09:11:23;;;;;;;9.93;8.17;;;;;;;20.30;64.63;101528.09;4885485;29;20037;-87
2023/05/21 09:13:59;;;;;;;10.80;8.52;;;;;;;20.29;63.77;101520.91;4902100;29;20035;-87
2023/05/21 09:16:36;;;;;;;9.00;7.85;;;;;;;20.58;64.19;101517.78;4902258;29;20025;-86
2023/05/21 09:19:04;;;;;;;9.23;8.32;;;;;;;20.73;62.79;101515.16;4901620;29;20061;-88
2023/05/21 09:21:32;;;;;;;9.10;7.63;;;;;;;20.80;63.26;101514.88;4885907;29;20115;-86
2023/05/21 09:23:59;;;;;;;9.07;7.67;;;;;;;20.78;62.48;101526.19;4884664;29;20052;-86
2023/05/21 09:26:25;;;;;;;11.95;8.30;;;;;;;20.91;62.75;101521.31;4884859;29;20550;-86
2023/05/21 09:28:51;;;;;;;8.93;7.93;;;;;;;21.13;63.14;101527.47;4901523;29;20037;-86
2023/05/21 09:31:26;;;;;;;11.95;7.90;;;;;;;21.05;62.29;101522.44;4884594;29;20441;-86
2023/05/21 09:33:55;;;;;;;10.82;8.00;;;;;;;21.11;62.63;101515.03;4870918;29;20041;-86
2023/05/21 09:36:21;;;;;;;11.60;8.80;;;;;;;21.05;61.69;101514.16;4869623;29;20033;-86
2023/05/21 09:38:53;;;;;;;11.77;8.30;;;;;;;21.00;63.18;101505.88;4885326;29;20427;-86
2023/05/21 09:41:30;;;;;;;10.02;8.00;;;;;;;21.16;62.48;101520.56;4884654;29;20033;-86
2023/05/21 09:43:59;;;;;;;13.73;8.65;;;;;;;21.18;61.70;101518.38;4884869;29;20437;-86
2023/05/21 09:46:27;;;;;;;12.00;7.57;;;;;;;21.37;61.32;101500.19;4901224;29;20064;-86
2023/05/21 09:49:03;;;;;;;;;;;;;;;;;;;;;
2023/05/21 09:51:28;;;;;;;11.10;8.38;;;;;;;21.54;60.75;101493.66;4901144;29;20039;-86
2023/05/21 09:54:06;;;;;;;14.13;8.93;;;;;;;21.50;60.64;101501.66;4868841;29;20037;-86
2023/05/21 09:56:41;;;;;;;12.40;8.80;;;;;;;21.51;60.45;101511.59;4886169;29;20131;-86
2023/05/21 09:59:06;;;;;;;10.23;8.60;;;;;;;21.61;59.38;101504.41;4869128;29;20048;-86
2023/05/21 10:01:37;;;;;;;11.63;8.32;;;;;;;21.83;59.86;101510.50;4884189;29;20042;-86
2023/05/21 10:04:16;;;;;;;;;;;;;;;;;;;;;
2023/05/21 10:06:46;;;;;;;11.68;8.35;;;;;;;22.34;57.87;101501.41;4901127;29;20031;-86
2023/05/21 10:09:17;;;;;;;10.73;8.90;;;;;;;22.54;57.18;101491.41;4884296;29;20035;-86
2023/05/21 10:11:43;;;;;;;10.30;8.30;;;;;;;22.77;56.44;101484.44;4900752;29;20024;-86
2023/05/21 10:14:31;;;;;;;11.40;8.75;;;;;;;22.92;56.78;101481.59;4900713;29;20552;-86
2023/05/21 10:17:00;;;;;;;9.97;8.53;;;;;;;22.88;55.45;101479.66;4883927;29;20116;-86
2023/05/21 10:19:30;;;;;;;9.80;8.80;;;;;;;22.93;56.76;101483.25;4883993;29;20469;-86
2023/05/21 10:22:06;;;;;;;;;;;;;;;;;;;;;
2023/05/21 10:24:35;;;;;;;11.98;9.45;;;;;;;23.24;56.01;101482.31;4900652;29;20082;-86
2023/05/21 10:27:02;;;;;;;10.88;8.57;;;;;;;23.32;53.88;101476.16;4883882;29;20092;-86
2023/05/21 10:29:30;;;;;;;12.73;8.90;;;;;;;23.37;54.45;101475.28;4883572;29;20389;-86
2023/05/21 10:31:57;;;;;;;12.48;9.40;;;;;;;23.38;54.37;101468.63;4900749;29;20111;-86
2023/05/21 10:34:36;;;;;;;12.50;8.82;;;;;;;23.59;54.67;101461.84;4883493;29;20100;-86
2023/05/21 10:37:06;;;;;;;11.10;9.13;;;;;;;23.82;53.08;101459.44;4883800;29;20037;-86
2023/05/21 10:39:47;;;;;;;;;;;;;;;;;;;;;
2023/05/21 10:43:02;;;;;;;9.73;7.83;;;;;;;24.65;51.66;101453.94;4871835;29;20142;-88
2023/05/21 10:49:31;;;;;;;11.10;8.52;;;;;;;25.27;49.86;101451.16;4900345;29;20089;-88
2023/05/21 10:52:39;;;;;;;12.95;9.15;;;;;;;25.51;49.16;101466.94;4869834;29;20051;-90
2023/05/21 10:55:35;;;;;;;;;;;;;;;;;;;;;
2023/05/21 10:58:57;;;;;;;13.17;8.37;;;;;;;26.58;46.97;101438.34;4901255;29;20050;-90
2023/05/21 11:02:01;;;;;;;11.20;9.32;;;;;;;26.82;45.93;101435.34;4883246;29;20055;-90
2023/05/21 11:04:43;;;;;;;;;;;;;;;;;;;;;
2023/05/21 11:07:12;;;;;;;14.60;9.30;;;;;;;27.24;44.02;101426.88;4871937;29;20047;-87
2023/05/21 11:09:40;;;;;;;15.90;10.30;;;;;;;27.45;43.55;101425.28;4900013;29;20032;-86
2023/05/21 11:12:08;;;;;;;12.27;10.20;;;;;;;28.14;41.17;101421.31;4883059;29;20055;-87
2023/05/21 11:14:42;;;;;;;11.68;9.85;;;;;;;29.00;40.38;101424.69;4883882;29;20040;-86
2023/05/21 11:17:35;;;;;;;13.73;9.43;;;;;;;30.24;38.63;101426.19;4883816;29;20068;-86
2023/05/21 11:20:27;;;;;;;12.10;9.43;;;;;;;32.39;34.76;101415.78;4882388;29;20029;-86
2023/05/21 11:22:52;;;;;;;11.43;9.18;;;;;;;33.43;31.12;101400.50;4883737;29;20055;-86
2023/05/21 11:25:18;;;;;;;10.63;9.53;;;;;;;34.24;30.33;101398.22;4882856;29;20053;-87
2023/05/21 11:27:46;;;;;;;12.10;9.73;;;;;;;35.31;28.59;101396.19;4899480;29;20028;-87
2023/05/21 11:30:17;;;;;;;11.48;9.93;;;;;;;36.06;27.83;101392.34;4882678;29;20056;-87
2023/05/21 11:33:09;;;;;;;11.18;9.02;;;;;;;37.39;27.39;101391.41;4883299;29;20354;-87
2023/05/21 11:36:02;;;;;;;11.68;10.25;;;;;;;38.09;26.42;101378.34;4882628;29;20032;-87
2023/05/21 11:38:30;;;;;;;13.07;9.43;;;;;;;39.08;23.10;101374.84;4895099;29;20048;-87
2023/05/21 11:41:02;;;;;;;11.75;10.55;;;;;;;39.68;23.69;101375.44;4882399;29;20028;-88
2023/05/21 11:43:30;;;;;;;12.40;11.02;;;;;;;40.60;21.14;101370.94;4899660;29;20045;-87
2023/05/21 11:45:55;;;;;;;11.88;10.55;;;;;;;41.35;20.53;101369.78;4866549;29;20123;-88
2023/05/21 11:48:26;;;;;;;12.77;9.90;;;;;;;42.35;20.16;101366.53;4899083;29;20061;-88
2023/05/21 11:50:54;;;;;;;13.07;10.55;;;;;;;43.05;19.28;101363.25;4882375;29;20044;-87
2023/05/21 11:53:19;;;;;;;16.17;11.00;;;;;;;42.79;19.02;101361.16;4881979;29;20095;-88
2023/05/21 11:55:46;;;;;;;11.87;10.70;;;;;;;42.52;19.68;101356.16;4882326;29;20036;-88
2023/05/21 11:58:17;;;;;;;15.60;11.02;;;;;;;43.66;18.38;101353.00;4866701;29;20032;-89
2023/05/21 12:00:52;;;;;;;12.80;11.50;;;;;;;44.89;17.88;101344.97;4883045;29;20488;-88
2023/05/21 12:03:25;;;;;;;13.65;11.75;;;;;;;44.62;16.78;101340.19;4882146;29;20032;-88